Time;durP1;ratioP1;P1;durP2;ratioP2;P2;SDS_P1;SDS_P2;PMS_P1;PMS_P2;Temp;Humidity;BMP_temperature;BMP_pressure;BME280_temperature;BME280_humidity;BME280_pressure;Samples;Min_cycle;Max_cycle;Signal;HPM_P1;HPM_P2
2022/08/26 00:00:54;;;;;;;5.80;5.27;;;27.20;59.00;;;;;;5037233;28;20195;-75
2022/08/26 00:03:22;;;;;;;6.40;5.80;;;27.20;59.10;;;;;;5033772;28;20860;-74
2022/08/26 00:05:49;;;;;;;6.23;5.60;;;27.10;59.30;;;;;;5034837;28;20463;-75
2022/08/26 00:08:16;;;;;;;8.63;5.93;;;27.10;59.30;;;;;;5041098;28;20526;-74
2022/08/26 00:10:42;;;;;;;6.10;5.50;;;27.10;59.70;;;;;;5039452;28;20415;-74
2022/08/26 00:13:10;;;;;;;6.60;6.00;;;27.10;59.70;;;;;;5032146;28;20466;-75
2022/08/26 00:15:37;;;;;;;5.97;5.47;;;27.00;59.90;;;;;;5038500;28;20438;-75
2022/08/26 00:18:02;;;;;;;5.77;5.27;;;27.00;59.90;;;;;;5038820;28;20525;-75
2022/08/26 00:20:31;;;;;;;5.70;5.20;;;27.00;59.90;;;;;;5033748;28;20669;-75
2022/08/26 00:22:57;;;;;;;6.47;5.80;;;26.90;59.90;;;;;;5046100;28;20195;-74
2022/08/26 00:25:23;;;;;;;6.10;5.30;;;26.90;59.90;;;;;;5048590;28;20469;-75
2022/08/26 00:27:49;;;;;;;6.33;5.73;;;26.90;60.00;;;;;;5038891;28;20179;-74
2022/08/26 00:30:23;;;;;;;6.73;6.07;;;26.90;60.10;;;;;;5042760;28;20814;-75
2022/08/26 00:32:49;;;;;;;7.00;5.60;;;26.90;60.30;;;;;;5042157;28;20497;-76
2022/08/26 00:35:15;;;;;;;6.17;5.57;;;26.90;60.50;;;;;;5041603;28;20488;-74
2022/08/26 00:37:41;;;;;;;6.53;5.80;;;26.80;60.60;;;;;;5040516;28;20194;-74
2022/08/26 00:40:15;;;;;;;5.87;5.37;;;26.80;60.60;;;;;;5032026;28;20195;-74
2022/08/26 00:42:40;;;;;;;6.23;5.70;;;26.80;60.80;;;;;;5027762;28;20488;-73
2022/08/26 00:45:06;;;;;;;6.57;5.90;;;26.80;61.10;;;;;;5036941;28;20853;-73
2022/08/26 00:48:02;;;;;;;5.53;5.00;;;26.70;61.30;;;;;;5034111;28;20260;-73
2022/08/26 00:50:34;;;;;;;5.97;5.47;;;26.70;61.60;;;;;;5034083;28;20242;-75
2022/08/26 00:53:03;;;;;;;6.40;5.20;;;26.60;61.70;;;;;;5034091;28;20443;-73
2022/08/26 00:55:35;;;;;;;6.73;6.03;;;26.70;62.10;;;;;;5034396;28;21169;-74
2022/08/26 00:58:02;;;;;;;5.80;5.30;;;26.60;62.20;;;;;;5029549;28;20445;-76
2022/08/26 01:00:29;;;;;;;5.90;5.40;;;26.60;62.50;;;;;;5033658;28;20503;-75
2022/08/26 01:02:57;;;;;;;5.43;5.03;;;26.50;62.70;;;;;;5033797;28;20499;-77
2022/08/26 01:05:24;;;;;;;7.00;6.10;;;26.50;62.80;;;;;;5023995;28;20556;-74
2022/08/26 01:07:50;;;;;;;6.23;5.63;;;26.50;63.00;;;;;;5034405;28;20449;-73
2022/08/26 01:10:23;;;;;;;7.03;6.23;;;26.40;63.20;;;;;;5032042;28;20465;-74
2022/08/26 01:12:57;;;;;;;7.53;5.60;;;26.40;63.40;;;;;;5033926;28;20549;-74
2022/08/26 01:15:57;;;;;;;6.30;5.70;;;26.40;63.70;;;;;;5036227;28;20461;-74
2022/08/26 01:18:24;;;;;;;6.60;6.00;;;26.30;63.90;;;;;;5037710;28;21005;-73
2022/08/26 01:20:49;;;;;;;6.20;5.67;;;26.30;63.90;;;;;;5036079;28;20445;-74
2022/08/26 01:23:16;;;;;;;6.60;6.00;;;26.30;64.00;;;;;;5034428;28;20883;-74
2022/08/26 01:25:47;;;;;;;5.73;4.97;;;26.30;64.00;;;;;;5036554;28;20226;-74
2022/08/26 01:28:20;;;;;;;6.53;5.80;;;26.20;64.10;;;;;;5032986;28;20434;-74
2022/08/26 01:30:48;;;;;;;6.00;5.50;;;26.20;64.30;;;;;;5037196;28;20443;-74
2022/08/26 01:33:18;;;;;;;10.70;5.57;;;26.20;64.50;;;;;;5036017;28;20457;-74
2022/08/26 01:35:44;;;;;;;9.30;5.90;;;26.10;64.70;;;;;;5033027;28;20471;-73
2022/08/26 01:38:11;;;;;;;7.13;5.60;;;26.10;64.90;;;;;;5035108;28;22571;-74
2022/08/26 01:40:42;;;;;;;6.00;5.50;;;26.10;65.00;;;;;;5034714;28;20447;-73
2022/08/26 01:43:13;;;;;;;6.30;5.70;;;26.00;65.20;;;;;;5030962;28;20451;-74
2022/08/26 01:45:40;;;;;;;6.90;5.60;;;26.00;65.60;;;;;;5029861;28;21009;-74
2022/08/26 01:48:12;;;;;;;8.33;5.57;;;25.90;65.80;;;;;;5031770;28;20430;-74
2022/08/26 01:50:38;;;;;;;5.73;5.23;;;25.90;66.00;;;;;;5032685;28;20842;-73
2022/08/26 01:53:08;;;;;;;6.63;5.80;;;25.80;66.30;;;;;;5034130;28;20533;-74
2022/08/26 01:55:36;;;;;;;6.47;5.87;;;25.80;66.50;;;;;;5034778;28;20473;-74
2022/08/26 01:58:06;;;;;;;7.90;5.73;;;25.80;66.70;;;;;;5031139;28;20474;-74
2022/08/26 02:00:33;;;;;;;5.43;5.03;;;25.80;66.80;;;;;;5032103;28;20514;-74
2022/08/26 02:03:20;;;;;;;7.00;6.30;;;25.70;67.00;;;;;;5028364;28;20447;-74
2022/08/26 02:05:59;;;;;;;6.00;5.50;;;25.70;67.10;;;;;;5028427;28;20463;-73
2022/08/26 02:08:35;;;;;;;7.20;6.53;;;25.70;67.50;;;;;;5037909;28;20486;-74
2022/08/26 02:11:02;;;;;;;6.63;5.93;;;25.70;67.60;;;;;;5027251;28;20461;-74
2022/08/26 02:13:30;;;;;;;7.60;6.40;;;25.60;67.80;;;;;;5032317;28;20880;-75
2022/08/26 02:15:57;;;;;;;6.80;6.10;;;25.60;68.20;;;;;;5039187;28;20470;-73
2022/08/26 02:18:24;;;;;;;6.37;5.60;;;25.50;68.30;;;;;;5032713;28;20442;-74
2022/08/26 02:20:53;;;;;;;7.03;6.00;;;25.50;68.70;;;;;;5030475;28;20946;-74
2022/08/26 02:23:18;;;;;;;7.23;6.63;;;25.40;69.00;;;;;;5034593;28;20439;-73
2022/08/26 02:26:13;;;;;;;9.47;6.40;;;25.50;69.00;;;;;;5028956;28;20467;-73
2022/08/26 02:28:54;;;;;;;6.80;6.20;;;25.50;69.10;;;;;;5032421;28;20195;-72
2022/08/26 02:31:19;;;;;;;6.13;5.60;;;25.50;68.90;;;;;;5029796;28;20543;-73
2022/08/26 02:33:45;;;;;;;6.50;6.00;;;25.50;69.10;;;;;;5032148;28;21128;-73
2022/08/26 02:36:11;;;;;;;7.00;6.40;;;25.40;69.30;;;;;;5030484;28;20219;-74
2022/08/26 02:38:36;;;;;;;7.13;6.53;;;25.40;69.60;;;;;;5031498;28;20179;-72
2022/08/26 02:41:03;;;;;;;6.47;5.97;;;25.40;69.70;;;;;;5032895;28;20556;-74
2022/08/26 02:43:28;;;;;;;7.23;6.63;;;25.30;69.70;;;;;;5027238;28;20180;-74
2022/08/26 02:45:54;;;;;;;5.47;5.07;;;25.30;69.80;;;;;;5032651;28;20891;-74
2022/08/26 02:48:20;;;;;;;10.50;6.93;;;25.30;70.40;;;;;;5033048;28;20208;-74
2022/08/26 02:50:47;;;;;;;8.10;7.30;;;25.20;70.90;;;;;;5027220;28;20196;-73
2022/08/26 02:53:14;;;;;;;8.73;7.10;;;25.00;71.80;;;;;;5031647;28;20533;-74
2022/08/26 02:55:40;;;;;;;9.10;7.33;;;24.90;72.40;;;;;;5028986;28;20856;-74
2022/08/26 02:58:07;;;;;;;7.10;6.40;;;24.80;73.00;;;;;;5030782;28;20442;-74
2022/08/26 03:00:35;;;;;;;7.97;6.90;;;24.70;73.50;;;;;;5031603;28;22141;-74
2022/08/26 03:03:01;;;;;;;7.90;7.10;;;24.60;74.20;;;;;;5032393;28;20444;-75
2022/08/26 03:05:26;;;;;;;8.90;8.10;;;24.50;76.00;;;;;;5029061;28;20461;-74
2022/08/26 03:07:52;;;;;;;8.40;6.83;;;24.30;77.70;;;;;;5028109;28;20212;-75
2022/08/26 03:10:18;;;;;;;7.47;6.80;;;24.30;78.50;;;;;;5031375;28;20735;-73
2022/08/26 03:12:44;;;;;;;8.80;6.67;;;24.30;78.50;;;;;;5030320;28;20217;-74
2022/08/26 03:15:12;;;;;;;7.30;6.70;;;24.30;79.00;;;;;;5029172;28;20468;-73
2022/08/26 03:17:38;;;;;;;6.57;5.97;;;24.20;79.70;;;;;;5030886;28;20187;-74
2022/08/26 03:20:08;;;;;;;8.47;6.80;;;24.20;79.40;;;;;;5027496;28;20443;-73
2022/08/26 03:22:35;;;;;;;7.23;6.53;;;24.20;79.70;;;;;;5031873;28;20542;-73
2022/08/26 03:25:04;;;;;;;10.00;7.60;;;24.10;80.20;;;;;;5033267;28;20453;-76
2022/08/26 03:27:30;;;;;;;6.93;6.33;;;24.20;80.70;;;;;;5030519;28;20789;-73
2022/08/26 03:32:40;;;;;;;8.00;7.30;;;24.10;82.40;;;;;;5032825;28;20262;-74
2022/08/26 03:35:06;;;;;;;7.50;6.80;;;24.10;82.20;;;;;;5025971;28;20466;-74
2022/08/26 03:37:31;;;;;;;6.17;5.57;;;24.00;82.50;;;;;;5031162;28;20184;-73
2022/08/26 03:39:57;;;;;;;7.33;6.63;;;23.90;82.70;;;;;;5033653;28;20487;-73
2022/08/26 03:42:22;;;;;;;7.27;6.67;;;23.80;83.50;;;;;;5028713;28;20215;-74
2022/08/26 03:44:50;;;;;;;6.40;5.80;;;23.80;84.00;;;;;;5028253;28;20190;-74
2022/08/26 03:47:16;;;;;;;6.90;6.30;;;23.80;84.10;;;;;;5025167;28;20797;-74
2022/08/26 03:49:41;;;;;;;6.63;6.03;;;23.80;84.40;;;;;;5032912;28;20440;-74
2022/08/26 03:52:07;;;;;;;7.30;6.70;;;23.90;84.60;;;;;;5029763;28;20195;-73
2022/08/26 03:54:32;;;;;;;6.80;6.20;;;23.90;84.70;;;;;;5033756;28;20192;-73
2022/08/26 03:56:58;;;;;;;6.37;5.60;;;23.90;84.60;;;;;;5031378;28;20877;-73
2022/08/26 03:59:24;;;;;;;6.70;6.00;;;23.90;84.50;;;;;;5030650;28;20208;-73
2022/08/26 04:01:49;;;;;;;6.70;6.10;;;24.00;84.40;;;;;;5036063;28;20220;-74
2022/08/26 04:04:15;;;;;;;6.90;6.30;;;24.00;84.30;;;;;;5032905;28;20900;-73
2022/08/26 04:06:42;;;;;;;7.03;6.20;;;24.00;84.40;;;;;;5027988;28;20208;-74
2022/08/26 04:09:14;;;;;;;7.03;6.40;;;24.10;84.40;;;;;;5029616;28;21063;-74
2022/08/26 04:11:43;;;;;;;7.10;6.50;;;24.10;84.40;;;;;;5036577;28;20446;-74
2022/08/26 04:14:13;;;;;;;7.20;6.50;;;24.10;84.60;;;;;;5031140;28;20557;-75
2022/08/26 04:16:40;;;;;;;7.10;6.50;;;24.00;84.70;;;;;;5036354;28;20475;-75
2022/08/26 04:19:06;;;;;;;7.70;7.00;;;24.00;85.20;;;;;;5037280;28;20975;-73
2022/08/26 04:21:31;;;;;;;7.13;6.53;;;24.00;85.50;;;;;;5031556;28;20937;-73
2022/08/26 04:23:57;;;;;;;7.27;6.67;;;23.90;85.50;;;;;;5036602;28;20430;-74
2022/08/26 04:26:23;;;;;;;7.13;6.53;;;23.90;85.90;;;;;;5030264;28;20215;-73
2022/08/26 04:28:50;;;;;;;6.87;6.20;;;24.00;85.80;;;;;;5030036;28;20306;-73
2022/08/26 04:31:17;;;;;;;7.10;6.50;;;24.00;86.00;;;;;;5036421;28;20192;-73
2022/08/26 04:33:44;;;;;;;6.87;5.70;;;24.00;86.30;;;;;;5033627;28;21010;-73
2022/08/26 04:36:10;;;;;;;6.87;6.17;;;24.00;86.40;;;;;;5030131;28;20465;-75
2022/08/26 04:38:36;;;;;;;7.33;6.63;;;24.00;86.30;;;;;;5030305;28;20443;-73
2022/08/26 04:41:03;;;;;;;7.47;6.67;;;24.00;86.50;;;;;;5031384;28;20462;-76
2022/08/26 04:43:30;;;;;;;7.00;6.30;;;23.90;86.90;;;;;;5029398;28;20177;-75
2022/08/26 04:46:01;;;;;;;7.80;7.10;;;23.80;87.60;;;;;;5032496;28;20458;-75
2022/08/26 04:48:29;;;;;;;7.67;6.93;;;23.80;88.30;;;;;;5030209;28;20529;-75
2022/08/26 04:50:55;;;;;;;9.43;7.30;;;23.70;88.80;;;;;;5035286;28;21215;-75
2022/08/26 04:53:21;;;;;;;7.97;7.23;;;23.70;89.70;;;;;;5034167;28;20431;-75
2022/08/26 04:55:46;;;;;;;8.73;7.93;;;23.70;90.00;;;;;;5031072;28;20458;-75
2022/08/26 04:58:20;;;;;;;8.87;7.50;;;23.80;89.80;;;;;;5032352;28;21267;-75
2022/08/26 05:00:47;;;;;;;9.87;8.23;;;23.90;89.60;;;;;;5031039;28;20263;-75
2022/08/26 05:03:14;;;;;;;7.53;6.93;;;23.90;89.90;;;;;;5032191;28;20439;-75
2022/08/26 05:05:41;;;;;;;7.57;6.87;;;23.90;89.90;;;;;;5026630;28;20463;-75
2022/08/26 05:08:11;;;;;;;7.83;7.10;;;23.90;90.10;;;;;;5031055;28;20482;-74
2022/08/26 05:10:48;;;;;;;7.60;7.00;;;23.80;90.30;;;;;;5035159;28;20427;-74
2022/08/26 05:13:16;;;;;;;12.67;7.90;;;23.90;90.30;;;;;;5036073;28;20768;-72
2022/08/26 05:15:43;;;;;;;8.10;7.40;;;23.90;90.50;;;;;;5035689;28;20891;-73
2022/08/26 05:18:09;;;;;;;8.40;7.20;;;23.90;90.60;;;;;;5039134;28;20770;-74
2022/08/26 05:20:40;;;;;;;7.60;6.77;;;23.80;90.70;;;;;;5035754;28;20542;-76
2022/08/26 05:23:06;;;;;;;8.60;7.70;;;23.80;91.00;;;;;;5037669;28;20778;-75
2022/08/26 05:25:36;;;;;;;10.43;8.23;;;23.80;91.10;;;;;;5035055;28;20458;-74
2022/08/26 05:28:03;;;;;;;9.30;8.40;;;23.80;91.10;;;;;;5030169;28;20562;-75
2022/08/26 05:30:30;;;;;;;8.17;7.03;;;23.80;91.40;;;;;;5031063;28;20513;-72
2022/08/26 05:32:56;;;;;;;9.93;8.97;;;23.90;91.40;;;;;;5034440;28;20495;-74
2022/08/26 05:35:21;;;;;;;7.97;7.20;;;23.80;91.60;;;;;;5031233;28;20469;-75
2022/08/26 05:37:48;;;;;;;9.00;8.07;;;23.80;91.90;;;;;;5028543;28;20187;-74
2022/08/26 05:40:14;;;;;;;8.87;7.97;;;23.80;92.10;;;;;;5034354;28;20729;-74
2022/08/26 05:42:40;;;;;;;8.33;7.50;;;23.70;92.30;;;;;;5035246;28;20431;-74
2022/08/26 05:45:06;;;;;;;9.33;8.50;;;23.70;92.80;;;;;;5029236;28;20501;-74
2022/08/26 05:47:32;;;;;;;8.97;8.17;;;23.90;92.50;;;;;;5027549;28;20457;-74
2022/08/26 05:49:57;;;;;;;11.53;8.60;;;23.80;92.60;;;;;;5031553;28;20949;-75
2022/08/26 05:52:23;;;;;;;11.83;9.67;;;23.80;92.50;;;;;;5031909;28;20183;-74
2022/08/26 05:54:48;;;;;;;13.20;8.70;;;23.80;92.80;;;;;;5031201;28;20676;-74
2022/08/26 05:57:14;;;;;;;10.50;8.50;;;23.60;93.10;;;;;;5028853;28;20219;-74
2022/08/26 05:59:40;;;;;;;8.77;7.80;;;23.60;93.70;;;;;;5031708;28;20176;-75
2022/08/26 06:02:06;;;;;;;8.63;7.53;;;23.60;93.90;;;;;;5028175;28;20275;-70
2022/08/26 06:04:31;;;;;;;9.20;8.03;;;23.50;94.20;;;;;;5027020;28;20272;-70
2022/08/26 06:06:57;;;;;;;10.00;9.10;;;23.50;94.70;;;;;;5023504;28;20454;-71
2022/08/26 06:09:23;;;;;;;9.50;8.40;;;23.40;95.00;;;;;;5034224;28;20192;-71
2022/08/26 06:11:49;;;;;;;9.73;8.83;;;23.50;95.10;;;;;;5040562;28;20176;-73
2022/08/26 06:14:16;;;;;;;11.20;9.17;;;23.60;95.20;;;;;;5038018;28;20455;-73
2022/08/26 06:16:43;;;;;;;12.30;9.40;;;23.60;95.30;;;;;;5036095;28;20478;-73
2022/08/26 06:19:11;;;;;;;11.50;9.77;;;23.80;95.40;;;;;;5032364;28;20458;-73
2022/08/26 06:21:39;;;;;;;9.40;8.50;;;23.80;95.40;;;;;;5033552;28;20868;-72
2022/08/26 06:27:00;;;;;;;18.40;9.17;;;23.70;95.80;;;;;;5031625;28;21042;-73
2022/08/26 06:29:27;;;;;;;9.70;8.20;;;23.70;95.90;;;;;;5030864;28;20802;-72
2022/08/26 06:31:54;;;;;;;9.03;8.20;;;23.80;95.70;;;;;;5040271;28;20429;-72
2022/08/26 06:34:20;;;;;;;10.00;9.00;;;23.80;95.70;;;;;;5030398;28;20479;-73
2022/08/26 06:36:48;;;;;;;8.47;7.57;;;23.80;95.90;;;;;;5027750;28;20470;-72
2022/08/26 06:39:15;;;;;;;13.93;9.20;;;23.80;95.70;;;;;;5025499;28;20797;-72
2022/08/26 06:41:44;;;;;;;10.17;8.40;;;23.80;95.60;;;;;;5032362;28;20426;-73
2022/08/26 06:44:12;;;;;;;9.50;8.50;;;23.90;95.30;;;;;;5031777;28;21157;-72
2022/08/26 06:46:37;;;;;;;9.03;8.03;;;23.70;95.70;;;;;;5029645;28;22041;-73
2022/08/26 06:49:03;;;;;;;13.73;7.70;;;23.80;95.60;;;;;;5025358;28;20450;-69
2022/08/26 06:51:32;;;;;;;9.67;8.00;;;23.80;95.70;;;;;;5039252;28;20226;-77
2022/08/26 06:53:59;;;;;;;9.30;7.53;;;23.70;95.90;;;;;;5037399;28;20309;-78
2022/08/26 06:56:34;;;;;;;10.03;8.63;;;23.70;96.50;;;;;;5045732;28;20466;-77
2022/08/26 06:59:00;;;;;;;9.70;7.90;;;23.80;96.60;;;;;;5034040;28;20427;-77
2022/08/26 07:01:29;;;;;;;9.60;7.60;;;23.90;96.60;;;;;;5034097;28;20442;-79
2022/08/26 07:03:58;;;;;;;8.10;7.30;;;24.00;96.30;;;;;;5033281;28;20419;-76
2022/08/26 07:06:26;;;;;;;10.53;8.30;;;24.00;96.20;;;;;;5033460;28;20446;-75
2022/08/26 07:09:00;;;;;;;9.50;8.50;;;24.20;96.40;;;;;;5033763;28;20446;-74
2022/08/26 07:11:25;;;;;;;13.53;8.03;;;24.30;95.40;;;;;;5036281;28;20430;-75
2022/08/26 07:13:52;;;;;;;9.07;7.77;;;24.30;95.10;;;;;;5032336;28;20434;-76
2022/08/26 07:16:18;;;;;;;9.40;8.20;;;24.30;95.00;;;;;;5032732;28;20204;-74
2022/08/26 07:18:44;;;;;;;11.37;8.03;;;24.30;95.10;;;;;;5035435;28;20446;-75
2022/08/26 07:21:13;;;;;;;8.30;7.50;;;24.30;95.10;;;;;;5031075;28;20558;-77
2022/08/26 07:23:39;;;;;;;8.20;7.50;;;24.40;95.10;;;;;;5034998;28;20437;-75
2022/08/26 07:26:15;;;;;;;8.40;7.60;;;24.40;95.30;;;;;;5034606;28;20980;-74
2022/08/26 07:28:41;;;;;;;7.90;7.17;;;24.40;95.10;;;;;;5029421;28;20442;-70
2022/08/26 07:31:09;;;;;;;8.20;7.40;;;24.50;95.00;;;;;;5021443;28;20445;-71
2022/08/26 07:33:36;;;;;;;9.30;8.13;;;24.70;94.80;;;;;;5036473;28;21152;-70
2022/08/26 07:36:02;;;;;;;8.90;8.10;;;24.70;94.60;;;;;;5030724;28;21031;-70
2022/08/26 07:38:28;;;;;;;8.33;7.50;;;24.90;94.30;;;;;;5034783;28;20438;-69
2022/08/26 07:40:53;;;;;;;11.10;7.50;;;25.10;93.90;;;;;;5028393;28;20439;-71
2022/08/26 07:43:19;;;;;;;11.63;8.90;;;25.30;93.40;;;;;;5029838;28;20203;-70
2022/08/26 07:45:45;;;;;;;8.97;7.70;;;25.10;93.70;;;;;;5027201;28;20204;-71
2022/08/26 07:48:11;;;;;;;10.67;8.40;;;25.20;94.50;;;;;;5027647;28;20439;-70
2022/08/26 07:50:37;;;;;;;9.27;8.37;;;25.30;94.50;;;;;;5025357;28;20687;-71
2022/08/26 07:53:03;;;;;;;9.50;8.27;;;25.20;94.60;;;;;;5030535;28;20184;-70
2022/08/26 07:55:29;;;;;;;13.73;8.67;;;25.30;94.50;;;;;;5038003;28;20204;-71
2022/08/26 07:57:55;;;;;;;9.43;8.53;;;25.30;94.90;;;;;;5032885;28;20478;-70
2022/08/26 08:00:21;;;;;;;9.20;8.30;;;25.40;94.70;;;;;;5029328;28;20496;-71
2022/08/26 08:02:47;;;;;;;16.67;15.07;;;25.50;94.30;;;;;;5033075;28;20403;-72
2022/08/26 08:05:16;;;;;;;10.83;8.00;;;25.40;94.40;;;;;;5033250;28;20517;-70
2022/08/26 08:07:45;;;;;;;12.50;9.63;;;25.50;94.20;;;;;;5033232;28;20191;-72
2022/08/26 08:10:17;;;;;;;12.57;9.40;;;25.60;94.10;;;;;;5032834;28;20509;-72
2022/08/26 08:12:43;;;;;;;10.23;9.00;;;25.50;94.30;;;;;;5037755;28;20427;-70
2022/08/26 08:15:12;;;;;;;9.87;8.83;;;25.60;94.10;;;;;;5036010;28;20459;-71
2022/08/26 08:17:38;;;;;;;9.63;8.33;;;25.60;94.30;;;;;;5034932;28;20272;-71
2022/08/26 08:20:05;;;;;;;9.53;8.70;;;25.60;94.00;;;;;;5030702;28;20514;-71
2022/08/26 08:22:31;;;;;;;9.20;8.30;;;25.40;94.10;;;;;;5031209;28;20427;-71
2022/08/26 08:24:57;;;;;;;9.37;8.40;;;25.40;94.60;;;;;;5033119;28;20418;-71
2022/08/26 08:27:22;;;;;;;9.83;8.93;;;25.50;94.60;;;;;;5027449;28;20686;-71
2022/08/26 08:29:48;;;;;;;10.00;8.87;;;25.50;94.40;;;;;;5034299;28;20255;-70
2022/08/26 08:32:14;;;;;;;9.40;8.50;;;25.50;94.40;;;;;;5037913;28;20175;-71
2022/08/26 08:34:40;;;;;;;9.20;8.20;;;25.50;93.30;;;;;;5034003;28;21269;-71
2022/08/26 08:37:06;;;;;;;10.90;9.90;;;25.50;93.60;;;;;;5029672;28;22620;-71
2022/08/26 08:39:32;;;;;;;8.97;8.10;;;25.60;94.00;;;;;;5034315;28;20195;-71
2022/08/26 08:42:07;;;;;;;9.60;8.67;;;25.60;93.50;;;;;;5035008;28;20418;-71
2022/08/26 08:44:38;;;;;;;8.47;7.63;;;25.70;93.70;;;;;;5036577;28;20564;-71
2022/08/26 08:47:16;;;;;;;9.20;8.30;;;25.80;93.60;;;;;;5044248;28;21076;-71
2022/08/26 08:49:42;;;;;;;11.93;10.50;;;25.90;92.70;;;;;;5036867;28;20786;-71
2022/08/26 08:52:28;;;;;;;12.50;11.30;;;25.80;92.80;;;;;;5035760;28;20847;-71
2022/08/26 08:54:55;;;;;;;11.30;9.13;;;25.90;92.70;;;;;;5038474;28;21059;-73
2022/08/26 08:57:30;;;;;;;9.30;8.43;;;25.90;93.00;;;;;;5037064;28;21759;-70
2022/08/26 09:00:07;;;;;;;8.93;8.03;;;25.80;92.90;;;;;;5036380;28;20808;-70
2022/08/26 09:02:49;;;;;;;9.10;8.30;;;25.90;92.80;;;;;;5031849;28;20474;-71
2022/08/26 09:05:21;;;;;;;9.63;8.73;;;26.00;92.70;;;;;;5032937;28;20536;-70
2022/08/26 09:07:52;;;;;;;9.00;8.20;;;26.10;92.90;;;;;;5033927;28;20842;-71
2022/08/26 09:10:42;;;;;;;9.57;8.60;;;26.20;92.20;;;;;;5037844;28;20487;-70
2022/08/26 09:13:10;;;;;;;11.40;10.40;;;26.30;92.00;;;;;;5034618;28;21123;-72
2022/08/26 09:15:55;;;;;;;8.40;7.60;;;26.50;91.70;;;;;;5032302;28;20520;-71
2022/08/26 09:18:48;;;;;;;8.83;7.87;;;26.60;91.40;;;;;;5035685;28;20526;-72
2022/08/26 09:21:17;;;;;;;9.60;8.70;;;26.60;91.00;;;;;;5037547;28;20489;-71
2022/08/26 09:23:43;;;;;;;9.67;8.87;;;26.70;90.70;;;;;;5035952;28;20514;-71
2022/08/26 09:26:28;;;;;;;8.37;7.57;;;26.80;90.50;;;;;;5040443;28;20527;-70
2022/08/26 09:29:00;;;;;;;10.13;9.23;;;27.00;89.50;;;;;;5036341;28;20505;-71
2022/08/26 09:31:26;;;;;;;9.60;8.70;;;27.10;88.70;;;;;;5037316;28;20418;-70
2022/08/26 09:34:12;;;;;;;10.17;8.03;;;27.20;88.40;;;;;;5036041;28;20450;-71
2022/08/26 09:36:42;;;;;;;10.03;9.13;;;27.30;88.00;;;;;;5032489;28;20661;-71
2022/08/26 09:39:26;;;;;;;10.03;9.00;;;27.50;87.00;;;;;;5036838;28;20495;-71
2022/08/26 09:42:21;;;;;;;11.10;8.40;;;27.60;86.60;;;;;;5030288;28;20787;-71
2022/08/26 09:45:05;;;;;;;9.13;8.13;;;27.60;86.20;;;;;;5037317;28;20438;-71
2022/08/26 09:47:36;;;;;;;9.20;8.30;;;27.60;86.30;;;;;;5035086;28;20438;-71
2022/08/26 09:50:28;;;;;;;10.70;8.43;;;27.70;86.20;;;;;;5038014;28;20850;-71
2022/08/26 09:53:14;;;;;;;12.70;8.80;;;27.80;85.90;;;;;;5035626;28;20461;-70
2022/08/26 09:55:46;;;;;;;8.60;7.87;;;27.90;85.90;;;;;;5033074;28;20480;-71
2022/08/26 09:58:33;;;;;;;11.03;8.30;;;28.00;84.40;;;;;;5030945;28;20466;-71
2022/08/26 10:01:00;;;;;;;9.73;7.93;;;28.10;83.60;;;;;;5030532;28;21136;-71
2022/08/26 10:03:35;;;;;;;12.93;7.90;;;28.20;83.10;;;;;;5032841;28;20423;-71
2022/08/26 10:06:02;;;;;;;10.83;7.70;;;28.20;81.90;;;;;;5036857;28;20480;-72
2022/08/26 10:08:41;;;;;;;10.30;7.90;;;28.20;81.60;;;;;;5039091;28;20466;-71
2022/08/26 10:11:27;;;;;;;7.93;7.13;;;28.30;81.20;;;;;;5033757;28;20969;-71
2022/08/26 10:14:03;;;;;;;9.50;7.47;;;28.40;80.90;;;;;;5036715;28;20477;-72
2022/08/26 10:16:51;;;;;;;8.40;7.70;;;28.40;80.90;;;;;;5036292;28;20536;-72
2022/08/26 10:19:28;;;;;;;9.10;8.20;;;28.50;80.30;;;;;;5038015;28;20421;-72
2022/08/26 10:22:04;;;;;;;8.23;7.43;;;28.50;79.80;;;;;;5039020;28;20811;-71
2022/08/26 10:24:47;;;;;;;11.63;7.97;;;28.50;80.20;;;;;;5035971;28;20792;-70
2022/08/26 10:27:27;;;;;;;8.53;7.73;;;28.60;79.60;;;;;;5031438;28;20439;-70
2022/08/26 10:30:01;;;;;;;8.70;6.90;;;28.60;78.90;;;;;;5030109;28;20935;-70
2022/08/26 10:32:35;;;;;;;13.80;8.03;;;28.70;78.90;;;;;;5034150;28;20410;-71
2022/08/26 10:35:02;;;;;;;9.00;7.60;;;28.90;78.10;;;;;;5027011;28;20459;-70
2022/08/26 10:37:38;;;;;;;8.33;7.53;;;29.00;77.70;;;;;;5033629;28;20447;-71
2022/08/26 10:40:04;;;;;;;8.40;7.10;;;29.00;77.30;;;;;;5036001;28;21008;-71
2022/08/26 10:42:45;;;;;;;7.90;7.20;;;29.10;76.40;;;;;;5036192;28;20458;-71
2022/08/26 10:45:18;;;;;;;7.90;7.10;;;29.10;76.20;;;;;;5032075;28;21049;-71
2022/08/26 10:48:01;;;;;;;15.23;7.70;;;29.00;76.00;;;;;;5035810;28;20426;-70
2022/08/26 10:50:31;;;;;;;8.90;7.03;;;29.10;75.90;;;;;;5031789;28;20438;-70
2022/08/26 10:53:16;;;;;;;7.77;6.70;;;29.30;74.90;;;;;;5032148;28;20440;-71
2022/08/26 10:55:56;;;;;;;7.70;6.60;;;29.40;74.40;;;;;;5034214;28;21338;-70
2022/08/26 10:58:40;;;;;;;8.73;7.53;;;29.50;74.40;;;;;;5035421;28;20434;-71
2022/08/26 11:01:44;;;;;;;7.53;6.83;;;29.60;74.30;;;;;;5034986;28;20514;-71
2022/08/26 11:04:38;;;;;;;8.13;7.33;;;29.70;72.90;;;;;;5033950;28;20395;-71
2022/08/26 11:07:38;;;;;;;9.37;8.23;;;29.80;72.00;;;;;;5032085;28;20875;-70
2022/08/26 11:10:06;;;;;;;9.57;8.70;;;29.90;71.70;;;;;;5033844;28;20452;-71
2022/08/26 11:12:34;;;;;;;7.53;6.93;;;30.00;71.60;;;;;;5032312;28;20454;-69
2022/08/26 11:15:02;;;;;;;8.97;7.63;;;30.10;71.20;;;;;;5034028;28;20989;-69
2022/08/26 11:17:43;;;;;;;7.73;7.00;;;30.10;71.10;;;;;;5032951;28;20476;-70
2022/08/26 11:20:32;;;;;;;9.17;7.50;;;30.20;70.50;;;;;;5035896;28;20815;-70
2022/08/26 11:23:21;;;;;;;7.73;7.03;;;30.40;70.60;;;;;;5032007;28;20869;-70
2022/08/26 11:26:09;;;;;;;8.10;7.00;;;30.50;70.20;;;;;;5039368;28;20468;-70
2022/08/26 11:28:48;;;;;;;7.20;6.50;;;30.60;69.40;;;;;;5033077;28;20506;-71
2022/08/26 11:31:24;;;;;;;6.37;5.77;;;30.70;68.20;;;;;;5032468;28;20932;-72
2022/08/26 11:33:55;;;;;;;7.80;7.10;;;30.80;67.30;;;;;;5035023;28;20416;-71
2022/08/26 11:36:36;;;;;;;6.03;5.57;;;30.90;65.70;;;;;;5033252;28;20445;-70
2022/08/26 11:39:18;;;;;;;8.27;5.90;;;31.10;65.60;;;;;;5030114;28;20457;-71
2022/08/26 11:41:50;;;;;;;8.73;6.50;;;31.20;65.00;;;;;;5030550;28;20409;-71
2022/08/26 11:44:25;;;;;;;7.13;6.53;;;31.30;65.00;;;;;;5028518;28;20448;-71
2022/08/26 11:46:53;;;;;;;8.23;6.70;;;31.40;64.20;;;;;;5028853;28;20473;-71
2022/08/26 11:49:18;;;;;;;7.50;6.80;;;31.50;63.70;;;;;;5032986;28;20418;-71
2022/08/26 11:51:44;;;;;;;7.53;6.83;;;31.70;62.60;;;;;;5029693;28;20410;-70
2022/08/26 11:54:13;;;;;;;7.60;6.73;;;31.90;62.50;;;;;;5032047;28;20237;-71
2022/08/26 11:56:40;;;;;;;7.07;6.47;;;31.90;61.40;;;;;;5030969;28;20778;-71
2022/08/26 11:59:10;;;;;;;7.47;6.80;;;32.20;61.70;;;;;;5032511;28;20386;-71
2022/08/26 12:01:43;;;;;;;6.97;6.37;;;32.60;61.30;;;;;;5030004;28;20824;-71
2022/08/26 12:04:23;;;;;;;7.50;6.63;;;32.80;58.70;;;;;;5033248;28;20408;-71
2022/08/26 12:06:50;;;;;;;7.10;6.23;;;33.10;58.00;;;;;;5029119;28;20890;-71
2022/08/26 12:09:53;;;;;;;7.50;6.77;;;33.90;57.60;;;;;;5030969;28;20417;-70
2022/08/26 12:15:26;;;;;;;6.57;6.07;;;35.80;53.80;;;;;;5948116;23;21955;-65
2022/08/26 12:17:52;;;;;;;10.27;6.23;;;36.30;52.70;;;;;;5015075;28;20426;-63
2022/08/26 12:20:44;;;;;;;7.13;6.43;;;36.40;51.40;;;;;;5011161;28;20481;-64
2022/08/26 12:23:29;;;;;;;6.57;5.97;;;36.40;50.80;;;;;;5011535;28;20205;-65
2022/08/26 12:26:06;;;;;;;6.47;5.93;;;36.50;50.10;;;;;;5008760;28;20474;-65
2022/08/26 12:28:32;;;;;;;6.60;6.03;;;36.30;50.30;;;;;;5011513;28;20462;-64
2022/08/26 12:31:00;;;;;;;6.97;6.47;;;36.50;50.40;;;;;;4994803;28;20494;-65
2022/08/26 12:33:26;;;;;;;5.40;5.00;;;36.40;50.30;;;;;;5001727;28;20425;-63
2022/08/26 12:35:53;;;;;;;6.40;5.80;;;36.40;48.40;;;;;;4992289;28;20541;-64
2022/08/26 12:38:19;;;;;;;6.43;5.93;;;36.60;48.10;;;;;;5004738;28;20528;-64
2022/08/26 12:40:48;;;;;;;5.70;5.17;;;37.10;47.80;;;;;;5020355;28;21264;-64
2022/08/26 12:43:37;;;;;;;6.70;6.20;;;37.60;47.00;;;;;;4999126;28;20272;-64
2022/08/26 12:46:03;;;;;;;7.33;6.67;;;37.50;47.10;;;;;;4999771;28;20493;-63
2022/08/26 12:48:32;;;;;;;7.27;6.67;;;37.60;47.60;;;;;;5020313;28;20443;-63
2022/08/26 12:50:59;;;;;;;6.10;5.60;;;38.20;47.20;;;;;;5001892;28;20421;-63
2022/08/26 12:53:29;;;;;;;5.73;5.17;;;38.60;45.00;;;;;;4982465;28;20478;-63
2022/08/26 12:56:02;;;;;;;8.10;5.63;;;39.00;45.10;;;;;;4991525;28;20979;-64
2022/08/26 12:58:31;;;;;;;6.63;6.13;;;39.60;44.70;;;;;;4994993;28;20523;-65
2022/08/26 13:01:03;;;;;;;7.27;6.57;;;39.80;44.00;;;;;;5004233;28;20416;-66
2022/08/26 13:03:28;;;;;;;6.60;6.00;;;39.90;43.90;;;;;;4999364;28;20434;-65
2022/08/26 13:06:20;;;;;;;6.50;5.90;;;40.20;43.70;;;;;;4998711;28;20475;-64
2022/08/26 13:08:52;;;;;;;8.87;6.53;;;40.40;43.20;;;;;;4997358;28;20596;-65
2022/08/26 13:11:24;;;;;;;7.20;6.60;;;40.50;41.80;;;;;;4995730;28;20413;-64